createdAt,value
2018-05-26T00:01:49.119Z,6.47
2018-05-26T00:04:16.685Z,7.10
2018-05-26T00:06:44.266Z,6.80
2018-05-26T00:09:11.826Z,6.90
2018-05-26T00:11:39.409Z,7.13
2018-05-26T00:14:06.997Z,8.07
2018-05-26T00:16:34.623Z,9.90
2018-05-26T00:19:02.222Z,9.10
2018-05-26T00:21:29.889Z,10.13
2018-05-26T00:23:57.510Z,9.50
2018-05-26T00:26:26.348Z,8.80
2018-05-26T00:28:53.930Z,8.80
2018-05-26T00:31:21.509Z,6.93
2018-05-26T00:33:49.065Z,7.80
2018-05-26T00:36:16.694Z,8.30
2018-05-26T00:38:44.247Z,8.35
2018-05-26T00:41:11.829Z,8.57
2018-05-26T00:43:39.561Z,9.90
2018-05-26T00:46:07.250Z,10.13
2018-05-26T00:48:34.845Z,9.63
2018-05-26T00:51:02.478Z,10.32
2018-05-26T00:53:30.046Z,9.20
2018-05-26T00:55:58.621Z,9.55
2018-05-26T00:58:26.950Z,8.52
2018-05-26T01:00:54.532Z,8.83
2018-05-26T01:03:22.100Z,9.27
2018-05-26T01:05:49.677Z,8.10
2018-05-26T01:08:17.237Z,9.60
2018-05-26T01:10:44.829Z,8.80
2018-05-26T01:13:12.390Z,8.70
2018-05-26T01:15:39.957Z,8.77
2018-05-26T01:18:07.541Z,10.50
2018-05-26T01:20:35.146Z,8.73
2018-05-26T01:23:02.753Z,9.87
2018-05-26T01:25:30.634Z,9.10
2018-05-26T01:27:58.213Z,9.70
2018-05-26T01:30:25.768Z,9.70
2018-05-26T01:32:53.346Z,9.60
2018-05-26T01:35:20.919Z,10.80
2018-05-26T01:37:48.513Z,9.80
2018-05-26T01:40:16.485Z,11.20
2018-05-26T01:42:44.117Z,10.43
2018-05-26T01:45:12.470Z,11.03
2018-05-26T01:47:40.057Z,9.73
2018-05-26T01:50:07.622Z,9.97
2018-05-26T01:52:35.887Z,9.83
2018-05-26T01:55:03.456Z,10.32
2018-05-26T01:57:31.041Z,10.43
2018-05-26T01:59:58.601Z,10.53
2018-05-26T02:02:26.181Z,10.43
2018-05-26T02:04:53.796Z,9.53
2018-05-26T02:07:21.433Z,10.50
2018-05-26T02:09:49.026Z,10.83
2018-05-26T02:12:20.118Z,10.03
2018-05-26T02:14:47.755Z,9.63
2018-05-26T02:17:15.680Z,10.37
2018-05-26T02:19:43.270Z,10.17
2018-05-26T02:22:10.913Z,10.60
2018-05-26T02:24:39.294Z,10.00
2018-05-26T02:27:06.867Z,10.27
2018-05-26T02:29:34.461Z,10.37
2018-05-26T02:32:02.844Z,10.70
2018-05-26T02:34:31.238Z,10.77
2018-05-26T02:36:59.589Z,10.53
2018-05-26T02:39:27.272Z,10.70
2018-05-26T02:41:55.753Z,9.83
2018-05-26T02:44:23.359Z,11.73
2018-05-26T02:46:51.907Z,10.53
2018-05-26T02:49:19.489Z,9.20
2018-05-26T02:51:47.044Z,9.70
2018-05-26T02:54:14.630Z,9.67
2018-05-26T02:56:42.189Z,9.53
2018-05-26T02:59:09.859Z,11.57
2018-05-26T03:01:37.421Z,11.50
2018-05-26T03:04:04.509Z,10.30
2018-05-26T03:06:37.683Z,9.53
2018-05-26T03:09:10.914Z,10.77
2018-05-26T03:11:44.122Z,10.90
2018-05-26T03:14:17.406Z,9.93
2018-05-26T03:16:51.572Z,9.53
2018-05-26T03:19:19.782Z,8.67
2018-05-26T03:21:48.117Z,8.77
2018-05-26T03:24:15.699Z,8.80
2018-05-26T03:26:43.280Z,8.83
2018-05-26T03:29:10.881Z,9.73
2018-05-26T03:31:38.446Z,9.30
2018-05-26T03:34:06.026Z,8.83
2018-05-26T03:36:33.603Z,9.07
2018-05-26T03:39:01.965Z,10.40
2018-05-26T03:41:29.554Z,9.47
2018-05-26T03:43:57.154Z,9.47
2018-05-26T03:46:25.679Z,9.23
2018-05-26T03:48:53.356Z,9.10
2018-05-26T03:51:20.945Z,8.33
2018-05-26T03:53:48.504Z,8.70
2018-05-26T03:56:27.993Z,7.60
2018-05-26T03:59:07.580Z,8.57
2018-05-26T04:01:35.182Z,7.60
2018-05-26T04:04:02.792Z,8.93
2018-05-26T04:06:31.169Z,8.57
2018-05-26T04:08:58.733Z,8.00
2018-05-26T04:11:26.383Z,8.30
2018-05-26T04:13:54.686Z,7.75
2018-05-26T04:16:22.267Z,8.10
2018-05-26T04:18:50.596Z,9.13
2018-05-26T04:21:18.173Z,9.43
2018-05-26T04:23:46.518Z,10.50
2018-05-26T04:26:14.277Z,10.63
2018-05-26T04:28:41.938Z,9.35
2018-05-26T04:31:09.574Z,9.55
2018-05-26T04:33:38.077Z,10.70
2018-05-26T04:36:06.502Z,10.27
2018-05-26T04:38:34.111Z,10.15
2018-05-26T04:41:02.469Z,9.80
2018-05-26T04:43:30.703Z,11.07
2018-05-26T04:45:58.339Z,11.20
2018-05-26T04:48:25.922Z,10.50
2018-05-26T04:50:54.477Z,11.37
2018-05-26T04:53:22.269Z,10.80
2018-05-26T04:55:50.417Z,11.63
2018-05-26T04:58:18.690Z,11.77
2018-05-26T05:00:48.944Z,12.80
2018-05-26T05:03:17.950Z,13.82
2018-05-26T05:05:46.433Z,13.70
2018-05-26T05:08:15.471Z,15.48
2018-05-26T05:10:44.165Z,11.97
2018-05-26T05:13:16.101Z,13.47
2018-05-26T05:15:45.255Z,14.30
2018-05-26T05:18:13.381Z,14.13
2018-05-26T05:20:41.055Z,14.07
2018-05-26T05:23:08.735Z,13.70
2018-05-26T05:25:36.440Z,13.63
2018-05-26T05:28:04.029Z,13.33
2018-05-26T05:30:33.403Z,13.53
2018-05-26T05:33:01.042Z,12.67
2018-05-26T05:35:29.418Z,13.83
2018-05-26T05:37:57.174Z,13.70
2018-05-26T05:40:24.794Z,10.23
2018-05-26T05:42:52.463Z,14.10
2018-05-26T05:45:20.872Z,10.70
2018-05-26T05:47:48.542Z,13.43
2018-05-26T05:50:16.239Z,14.20
2018-05-26T05:52:44.561Z,12.93
2018-05-26T05:55:13.094Z,13.00
2018-05-26T05:57:40.767Z,12.07
2018-05-26T06:00:08.333Z,11.27
2018-05-26T06:02:36.685Z,12.23
2018-05-26T06:05:04.411Z,12.47
2018-05-26T06:07:34.325Z,13.40
2018-05-26T06:10:02.676Z,13.90
2018-05-26T06:12:30.270Z,12.30
2018-05-26T06:14:57.895Z,12.20
2018-05-26T06:17:26.315Z,11.53
2018-05-26T06:19:55.467Z,12.47
2018-05-26T06:22:23.097Z,10.50
2018-05-26T06:24:51.466Z,10.60
2018-05-26T06:27:19.058Z,9.83
2018-05-26T06:29:46.714Z,10.63
2018-05-26T06:32:14.322Z,11.60
2018-05-26T06:34:41.890Z,10.33
2018-05-26T06:37:10.403Z,9.87
2018-05-26T06:39:38.762Z,9.80
2018-05-26T06:42:06.338Z,9.43
2018-05-26T06:44:34.122Z,8.80
2018-05-26T06:47:01.977Z,11.13
2018-05-26T06:49:29.593Z,9.80
2018-05-26T06:51:58.069Z,9.60
2018-05-26T06:54:25.867Z,8.17
2018-05-26T06:56:54.136Z,8.03
2018-05-26T06:59:23.324Z,7.53
2018-05-26T07:01:50.940Z,8.70
2018-05-26T07:04:18.530Z,9.00
2018-05-26T07:06:46.099Z,9.33
2018-05-26T07:09:13.677Z,7.97
2018-05-26T07:11:42.006Z,8.63
2018-05-26T07:14:09.593Z,8.70
2018-05-26T07:16:37.165Z,8.40
2018-05-26T07:19:05.032Z,7.87
2018-05-26T07:21:33.181Z,8.97
2018-05-26T07:24:00.813Z,8.10
2018-05-26T07:26:28.366Z,8.03
2018-05-26T07:28:55.949Z,8.40
2018-05-26T07:31:23.510Z,8.60
2018-05-26T07:33:51.216Z,8.50
2018-05-26T07:36:18.762Z,8.87
2018-05-26T07:38:46.425Z,8.57
2018-05-26T07:41:14.010Z,7.97
2018-05-26T07:43:41.680Z,7.90
2018-05-26T07:46:09.274Z,9.00
2018-05-26T07:48:37.096Z,7.30
2018-05-26T07:51:04.767Z,7.33
2018-05-26T07:53:32.372Z,8.30
2018-05-26T07:55:59.930Z,7.50
2018-05-26T07:58:27.527Z,7.87
2018-05-26T08:00:55.090Z,6.73
2018-05-26T08:03:22.649Z,7.83
2018-05-26T08:05:50.225Z,8.03
2018-05-26T08:08:17.785Z,7.83
2018-05-26T08:10:45.365Z,7.00
2018-05-26T08:13:12.921Z,6.43
2018-05-26T08:15:41.261Z,6.50
2018-05-26T08:18:08.834Z,8.10
2018-05-26T08:20:36.727Z,6.73
2018-05-26T08:23:05.278Z,5.67
2018-05-26T08:25:32.893Z,6.30
2018-05-26T08:28:00.466Z,6.10
2018-05-26T08:30:28.041Z,6.03
2018-05-26T08:32:55.630Z,6.47
2018-05-26T08:35:23.236Z,5.73
2018-05-26T08:37:50.903Z,5.57
2018-05-26T08:40:18.843Z,5.70
2018-05-26T08:42:47.513Z,6.57
2018-05-26T08:45:16.004Z,6.43
2018-05-26T08:47:44.439Z,6.40
2018-05-26T08:50:12.809Z,5.73
2018-05-26T08:52:40.368Z,6.40
2018-05-26T08:55:07.941Z,5.17
2018-05-26T08:57:35.495Z,5.63
2018-05-26T09:00:03.073Z,5.30
2018-05-26T09:02:30.631Z,5.17
2018-05-26T09:04:58.211Z,5.10
2018-05-26T09:07:26.059Z,4.97
2018-05-26T09:09:54.501Z,6.10
2018-05-26T09:12:22.130Z,6.40
2018-05-26T09:14:50.076Z,4.80
2018-05-26T09:17:18.307Z,6.60
2018-05-26T09:19:46.043Z,5.53
2018-05-26T09:22:13.696Z,5.40
2018-05-26T09:24:41.281Z,5.03
2018-05-26T09:27:08.889Z,5.00
2018-05-26T09:29:38.071Z,5.60
2018-05-26T09:32:05.643Z,5.10
2018-05-26T09:34:33.263Z,5.50
2018-05-26T09:37:00.970Z,5.73
2018-05-26T09:39:28.917Z,5.90
2018-05-26T09:41:56.776Z,6.60
2018-05-26T09:44:26.075Z,5.20
2018-05-26T09:46:53.777Z,5.13
2018-05-26T09:49:21.349Z,4.77
2018-05-26T09:51:49.685Z,4.70
2018-05-26T09:54:17.249Z,6.33
2018-05-26T09:56:44.828Z,5.73
2018-05-26T09:59:12.382Z,5.97
2018-05-26T10:01:39.981Z,4.70
2018-05-26T10:04:07.706Z,5.23
2018-05-26T10:06:35.514Z,6.27
2018-05-26T10:09:03.765Z,5.73
2018-05-26T10:11:32.144Z,6.10
2018-05-26T10:14:00.719Z,6.50
2018-05-26T10:16:29.011Z,6.73
2018-05-26T10:18:56.696Z,6.33
2018-05-26T10:21:28.118Z,5.80
2018-05-26T10:23:56.662Z,6.53
2018-05-26T10:26:25.230Z,5.83
2018-05-26T10:28:52.786Z,4.83
2018-05-26T10:31:20.451Z,4.93
2018-05-26T10:33:48.054Z,5.73
2018-05-26T10:36:15.799Z,6.20
2018-05-26T10:38:43.567Z,5.80
2018-05-26T10:41:11.284Z,5.90
2018-05-26T10:43:39.483Z,6.33
2018-05-26T10:46:19.804Z,5.60
2018-05-26T10:48:47.485Z,5.60
2018-05-26T10:51:15.762Z,5.53
2018-05-26T10:53:44.254Z,4.97
2018-05-26T10:56:11.883Z,5.77
2018-05-26T10:58:39.501Z,5.07
2018-05-26T11:01:07.111Z,5.60
2018-05-26T11:03:34.774Z,5.60
2018-05-26T11:06:05.730Z,5.50
2018-05-26T11:08:33.396Z,6.10
2018-05-26T11:11:01.062Z,5.17
2018-05-26T11:13:28.902Z,5.57
2018-05-26T11:15:56.486Z,5.90
2018-05-26T11:18:24.826Z,5.63
2018-05-26T11:20:52.382Z,5.33
2018-05-26T11:23:20.038Z,5.40
2018-05-26T11:25:47.653Z,5.20
2018-05-26T11:28:15.240Z,5.07
2018-05-26T11:30:42.904Z,4.67
2018-05-26T11:33:10.633Z,4.73
2018-05-26T11:35:38.386Z,4.77
2018-05-26T11:38:06.742Z,4.90
2018-05-26T11:40:34.318Z,5.60
2018-05-26T11:43:01.985Z,4.70
2018-05-26T11:45:29.553Z,5.00
2018-05-26T11:47:57.132Z,5.70
2018-05-26T11:50:24.810Z,5.50
2018-05-26T11:52:52.472Z,5.73
2018-05-26T11:55:20.064Z,4.73
2018-05-26T11:57:47.696Z,5.27
2018-05-26T12:00:15.604Z,6.13
2018-05-26T12:02:43.395Z,5.80
2018-05-26T12:05:11.163Z,6.20
2018-05-26T12:07:39.033Z,5.77
2018-05-26T12:10:07.426Z,5.13
2018-05-26T12:12:34.977Z,4.83
2018-05-26T12:15:02.550Z,5.20
2018-05-26T12:17:30.117Z,5.17
2018-05-26T12:19:57.696Z,6.20
2018-05-26T12:22:29.043Z,5.17
2018-05-26T12:24:56.622Z,4.73
2018-05-26T12:27:24.196Z,5.03
2018-05-26T12:29:51.805Z,5.73
2018-05-26T12:32:20.158Z,5.00
2018-05-26T12:34:47.818Z,4.63
2018-05-26T12:37:16.036Z,5.50
2018-05-26T12:39:44.433Z,4.77
2018-05-26T12:42:12.149Z,5.10
2018-05-26T12:44:40.803Z,5.13
2018-05-26T12:47:09.843Z,4.80
2018-05-26T12:49:37.459Z,5.87
2018-05-26T12:52:05.009Z,4.30
2018-05-26T12:54:33.357Z,5.57
2018-05-26T12:57:00.913Z,4.87
2018-05-26T12:59:28.494Z,5.20
2018-05-26T13:01:56.047Z,5.10
2018-05-26T13:04:23.618Z,5.47
2018-05-26T13:06:51.205Z,5.10
2018-05-26T13:09:18.850Z,5.40
2018-05-26T13:11:46.746Z,6.27
2018-05-26T13:14:14.404Z,5.53
2018-05-26T13:16:42.056Z,5.07
2018-05-26T13:19:10.498Z,5.03
2018-05-26T13:21:38.105Z,5.27
2018-05-26T13:24:05.662Z,5.23
2018-05-26T13:26:33.233Z,5.10
2018-05-26T13:29:00.785Z,5.13
2018-05-26T13:31:28.369Z,5.33
2018-05-26T13:33:55.934Z,5.43
2018-05-26T13:36:23.523Z,5.50
2018-05-26T13:38:51.090Z,6.00
2018-05-26T13:41:18.777Z,6.20
2018-05-26T13:43:46.397Z,6.13
2018-05-26T13:46:14.054Z,5.83
2018-05-26T13:48:41.728Z,5.97
2018-05-26T13:51:09.432Z,5.10
2018-05-26T13:53:37.019Z,6.10
2018-05-26T13:56:04.700Z,5.10
2018-05-26T13:58:32.261Z,5.40
2018-05-26T14:00:59.834Z,4.63
2018-05-26T14:03:29.595Z,5.40
2018-05-26T14:05:57.169Z,5.20
2018-05-26T14:08:24.728Z,5.73
2018-05-26T14:10:52.419Z,5.37
2018-05-26T14:13:20.024Z,5.00
2018-05-26T14:15:47.648Z,4.27
2018-05-26T14:18:20.212Z,5.30
2018-05-26T14:20:49.898Z,5.70
2018-05-26T14:23:18.226Z,6.10
2018-05-26T14:25:45.806Z,5.83
2018-05-26T14:28:13.371Z,5.40
2018-05-26T14:30:41.084Z,4.93
2018-05-26T14:33:10.518Z,5.87
2018-05-26T14:35:38.112Z,5.50
2018-05-26T14:38:05.669Z,4.67
2018-05-26T14:40:34.091Z,5.23
2018-05-26T14:43:01.692Z,5.37
2018-05-26T14:45:29.300Z,5.50
2018-05-26T14:47:56.957Z,5.10
2018-05-26T14:50:24.617Z,4.17
2018-05-26T14:52:52.374Z,4.40
2018-05-26T14:55:20.796Z,5.20
2018-05-26T14:57:48.422Z,5.53
2018-05-26T15:00:15.981Z,4.60
2018-05-26T15:02:43.557Z,5.50
2018-05-26T15:05:11.110Z,4.60
2018-05-26T15:07:39.450Z,4.47
2018-05-26T15:10:07.001Z,5.20
2018-05-26T15:12:34.582Z,4.67
2018-05-26T15:15:02.143Z,4.93
2018-05-26T15:17:29.774Z,4.43
2018-05-26T15:19:57.413Z,5.67
2018-05-26T15:22:25.043Z,4.83
2018-05-26T15:24:53.042Z,4.80
2018-05-26T15:27:20.820Z,4.43
2018-05-26T15:29:48.381Z,4.60
2018-05-26T15:32:16.731Z,4.67
2018-05-26T15:34:44.305Z,4.87
2018-05-26T15:37:11.961Z,4.20
2018-05-26T15:39:39.590Z,5.10
2018-05-26T15:42:08.013Z,5.60
2018-05-26T15:44:35.643Z,4.03
2018-05-26T15:47:03.985Z,4.43
2018-05-26T15:49:31.541Z,5.07
2018-05-26T15:51:59.141Z,4.80
2018-05-26T15:54:26.701Z,5.00
2018-05-26T15:56:54.271Z,4.83
2018-05-26T15:59:21.878Z,4.50
2018-05-26T16:01:49.476Z,5.60
2018-05-26T16:04:17.841Z,4.63
2018-05-26T16:06:46.183Z,5.00
2018-05-26T16:09:14.518Z,5.37
2018-05-26T16:11:42.078Z,5.03
2018-05-26T16:14:09.849Z,4.57
2018-05-26T16:16:37.467Z,5.30
2018-05-26T16:19:05.992Z,5.40
2018-05-26T16:21:33.890Z,4.73
2018-05-26T16:24:01.796Z,4.70
2018-05-26T16:26:29.491Z,4.30
2018-05-26T16:28:57.134Z,5.43
2018-05-26T16:31:24.694Z,4.60
2018-05-26T16:33:52.265Z,4.97
2018-05-26T16:36:19.818Z,5.00
2018-05-26T16:38:47.389Z,4.53
2018-05-26T16:41:14.949Z,5.00
2018-05-26T16:43:42.645Z,4.83
2018-05-26T16:46:13.208Z,5.00
2018-05-26T16:48:40.860Z,4.30
2018-05-26T16:51:08.435Z,4.53
2018-05-26T16:53:36.010Z,4.70
2018-05-26T16:56:03.561Z,4.63
2018-05-26T16:58:31.129Z,4.87
2018-05-26T17:00:58.682Z,4.70
2018-05-26T17:03:27.106Z,3.87
2018-05-26T17:05:54.662Z,4.33
2018-05-26T17:08:22.267Z,4.87
2018-05-26T17:10:49.824Z,4.37
2018-05-26T17:13:17.394Z,5.10
2018-05-26T17:15:44.970Z,4.73
2018-05-26T17:18:12.521Z,4.40
2018-05-26T17:20:40.107Z,4.90
2018-05-26T17:23:07.663Z,5.00
2018-05-26T17:25:36.006Z,4.93
2018-05-26T17:28:03.602Z,5.17
2018-05-26T17:30:31.212Z,4.87
2018-05-26T17:32:58.793Z,4.87
2018-05-26T17:35:26.404Z,4.40
2018-05-26T17:37:54.203Z,4.40
2018-05-26T17:40:21.993Z,4.47
2018-05-26T17:42:49.626Z,4.17
2018-05-26T17:45:17.201Z,5.00
2018-05-26T17:47:44.753Z,4.90
2018-05-26T17:50:12.330Z,5.00
2018-05-26T17:52:39.894Z,4.73
2018-05-26T17:55:07.465Z,5.27
2018-05-26T17:57:35.030Z,5.00
2018-05-26T18:00:02.637Z,4.90
2018-05-26T18:02:30.216Z,5.30
2018-05-26T18:04:57.845Z,4.70
2018-05-26T18:07:25.511Z,4.20
2018-05-26T18:09:53.246Z,6.27
2018-05-26T18:12:20.927Z,6.67
2018-05-26T18:14:49.319Z,6.33
2018-05-26T18:17:16.994Z,5.23
2018-05-26T18:19:44.697Z,5.13
2018-05-26T18:22:13.333Z,6.80
2018-05-26T18:24:40.956Z,6.50
2018-05-26T18:27:08.622Z,6.07
2018-05-26T18:29:36.949Z,6.33
2018-05-26T18:32:04.522Z,5.63
2018-05-26T18:34:32.298Z,5.93
2018-05-26T18:36:59.958Z,6.27
2018-05-26T18:39:27.518Z,6.70
2018-05-26T18:41:55.859Z,6.40
2018-05-26T18:44:23.419Z,7.80
2018-05-26T18:46:50.999Z,6.60
2018-05-26T18:49:18.558Z,7.30
2018-05-26T18:51:46.142Z,6.33
2018-05-26T18:54:13.766Z,6.97
2018-05-26T18:56:41.410Z,11.37
2018-05-26T18:59:09.053Z,10.00
2018-05-26T19:01:36.831Z,10.93
2018-05-26T19:04:04.919Z,10.50
2018-05-26T19:06:32.755Z,13.00
2018-05-26T19:09:01.190Z,10.13
2018-05-26T19:11:28.859Z,10.90
2018-05-26T19:13:56.421Z,13.43
2018-05-26T19:16:24.097Z,12.53
2018-05-26T19:18:52.001Z,12.80
2018-05-26T19:21:20.514Z,12.07
2018-05-26T19:23:49.241Z,13.30
2018-05-26T19:26:17.031Z,14.67
2018-05-26T19:28:44.612Z,14.07
2018-05-26T19:31:12.298Z,13.60
2018-05-26T19:33:39.896Z,12.47
2018-05-26T19:36:07.490Z,12.73
2018-05-26T19:38:35.065Z,13.73
2018-05-26T19:41:02.630Z,13.63
2018-05-26T19:43:30.225Z,12.80
2018-05-26T19:45:58.650Z,13.70
2018-05-26T19:48:26.237Z,12.93
2018-05-26T19:50:53.815Z,12.70
2018-05-26T19:53:22.452Z,13.20
2018-05-26T19:55:50.928Z,12.53
2018-05-26T19:58:18.649Z,12.90
2018-05-26T20:00:46.481Z,14.37
2018-05-26T20:03:14.853Z,16.93
2018-05-26T20:05:43.177Z,13.60
2018-05-26T20:08:10.767Z,15.73
2018-05-26T20:10:39.370Z,15.93
2018-05-26T20:13:06.983Z,15.57
2018-05-26T20:15:34.550Z,15.00
2018-05-26T20:18:02.260Z,14.70
2018-05-26T20:20:31.013Z,14.70
2018-05-26T20:22:58.996Z,14.60
2018-05-26T20:25:26.607Z,13.90
2018-05-26T20:27:54.197Z,13.53
2018-05-26T20:30:22.529Z,13.53
2018-05-26T20:32:50.113Z,13.37
2018-05-26T20:35:17.669Z,13.03
2018-05-26T20:37:45.359Z,13.33
2018-05-26T20:40:13.386Z,14.10
2018-05-26T20:42:42.304Z,13.47
2018-05-26T20:45:09.953Z,13.67
2018-05-26T20:47:37.534Z,12.80
2018-05-26T20:50:05.131Z,12.70
2018-05-26T20:52:33.483Z,12.60
2018-05-26T20:55:01.049Z,12.60
2018-05-26T20:57:28.653Z,11.60
2018-05-26T20:59:57.009Z,12.50
2018-05-26T21:02:24.588Z,12.43
2018-05-26T21:04:52.293Z,12.00
2018-05-26T21:07:20.777Z,11.37
2018-05-26T21:09:48.442Z,12.13
2018-05-26T21:12:16.147Z,12.37
2018-05-26T21:14:44.377Z,12.10
2018-05-26T21:17:12.286Z,11.90
2018-05-26T21:19:40.670Z,11.53
2018-05-26T21:22:08.238Z,12.47
2018-05-26T21:24:35.877Z,12.80
2018-05-26T21:27:03.438Z,12.20
2018-05-26T21:29:31.061Z,12.60
2018-05-26T21:31:58.711Z,12.40
2018-05-26T21:34:26.325Z,11.90
2018-05-26T21:36:54.737Z,13.30
2018-05-26T21:39:22.503Z,13.23
2018-05-26T21:41:50.255Z,13.17
2018-05-26T21:44:17.926Z,12.10
2018-05-26T21:46:45.545Z,13.50
2018-05-26T21:49:13.187Z,13.20
2018-05-26T21:51:40.721Z,13.00
2018-05-26T21:54:08.306Z,13.90
2018-05-26T21:56:35.873Z,12.90
2018-05-26T21:59:03.460Z,12.80
2018-05-26T22:01:31.097Z,12.50
2018-05-26T22:03:58.686Z,11.90
2018-05-26T22:06:26.245Z,12.70
2018-05-26T22:08:53.834Z,12.93
2018-05-26T22:11:21.406Z,13.00
2018-05-26T22:13:49.023Z,13.17
2018-05-26T22:16:17.422Z,12.73
2018-05-26T22:18:45.066Z,14.70
2018-05-26T22:21:13.437Z,12.77
2018-05-26T22:23:40.999Z,13.33
2018-05-26T22:26:08.605Z,14.93
2018-05-26T22:28:36.169Z,14.40
2018-05-26T22:31:03.748Z,13.40
2018-05-26T22:33:31.313Z,12.73
2018-05-26T22:35:58.893Z,13.17
2018-05-26T22:38:26.495Z,16.43
2018-05-26T22:40:54.873Z,16.40
2018-05-26T22:43:23.218Z,17.37
2018-05-26T22:45:50.803Z,19.80
2018-05-26T22:48:18.381Z,21.30
2018-05-26T22:50:45.970Z,19.10
2018-05-26T22:53:13.549Z,20.90
2018-05-26T22:55:41.951Z,20.27
2018-05-26T22:58:10.349Z,20.00
2018-05-26T23:00:38.756Z,20.17
2018-05-26T23:03:06.329Z,21.67
2018-05-26T23:05:33.913Z,21.27
2018-05-26T23:08:01.469Z,23.20
2018-05-26T23:10:29.064Z,21.40
2018-05-26T23:12:56.625Z,22.43
2018-05-26T23:15:24.210Z,23.33
2018-05-26T23:17:51.804Z,22.80
2018-05-26T23:20:19.452Z,23.63
2018-05-26T23:22:47.040Z,24.43
2018-05-26T23:25:14.704Z,23.00
2018-05-26T23:27:42.491Z,24.00
2018-05-26T23:30:10.165Z,22.50
2018-05-26T23:32:37.729Z,25.80
2018-05-26T23:35:05.301Z,24.37
2018-05-26T23:37:32.986Z,23.57
2018-05-26T23:40:00.643Z,28.07
2018-05-26T23:42:29.085Z,29.90
2018-05-26T23:44:56.649Z,31.67
2018-05-26T23:47:25.057Z,32.43
2018-05-26T23:49:53.458Z,33.97
2018-05-26T23:52:25.022Z,35.60
2018-05-26T23:54:53.377Z,26.70
2018-05-26T23:57:21.020Z,22.73
2018-05-26T23:59:48.913Z,24.37
